Terminal Aerodrome Forecast
Issued by NWS

Home | Current Version | Previous Version | Text Only | Print | Product List | Glossary On
Versions: 1 2 3 4 5 6 7 8 9 10 11 12 13 14 15 16 17 18 19 20
000
FTUS43 KILX 031527 AAA
TAFBMI
TAF AMD
KBMI 031527Z 0315/0412 20015G22KT P6SM SCT090
     FM031700 20016G25KT P6SM SCT100 SCT250
     FM040000 18012KT P6SM SCT250
     FM040400 20012KT P6SM VCSH BKN060=

USA.gov is the U.S. government's official web portal to all federal, state and local government web resources and services.